Clarksfield, Ohio
Current Conditions -  °F | °C
As of 10:53 PM on Saturday 20 Dec 2014 (Local Time) from KLPR Reporting Station
Light Snow Light Snow  
Wind Chill: 23°   Ceiling: 3300
Heat Index: 28°   Visibility: 5mi
Dew Point: 24°   Wind: 5mph
Humidity: 85%   Direction: 250°WSW
Pressure: 30.28"   Gusts: NA
Location:  41.2376°N, 82.3866°W
Report Text: KLPR 210353Z AUTO 25004KT 5SM -SN BR OVC033 M02/M04 A3028 RMK AO2 SNB35 SLP264 P0000 T10221044 TSNO
Loading
Personal Weather Stations






























Interactive Weather Map New forecast layout! Learn more

10-Day Weather Forecast

Advertisements
Track Severe Weather on mobile